Susendal-Bjormo, Norway

2:02 PM CET on February 28, 2015 (GMT +0100)
Sjaamoen | Change Station
CLOSE
Current Station
Personal Weather Station
Location: Mosjoen,, Nordland
Elevation: 923 ft
Nearby Weather Stations

Elev 923 ft 65.84 °N, 13.39 °E | Updated 3 minutes ago

Partly Cloudy
Partly Cloudy
33.6 °F
Feels Like 26 °F
N
9.0
Wind Variable Wind from SW
Gusts 20.0 mph

Today
High -- | Low -- °F
--% Chance of Precip.
Yesterday
High -- | Low -- °F
Precip. -- in
7:20 AM 5:12 PM
Waxing Gibbous, 77% visible
Pressure 29.33 in
Visibility 5.6 miles
Clouds Few 12000 ft
Windchill 26 °F
Dew Point 16 °F
Humidity 47%
Rainfall 0.01 in
Snow Depth Not available.
UV 1 out of 12
Pollen Not available.
Air Quality Not available.
Flu Activity Not available.
METAR ESUT 281250Z AUTO 16019KT 9000 FEW120/// M01/M06 Q0993

More Conditions Fewer Conditions

Pressure 29.33 in
Visibility 5.6 miles
Clouds Few 12000 ft
Windchill 26 °F
Dew Point 16 °F
Humidity 47%
Rainfall 0.01 in
Snow Depth Not available.
UV 1 out of 12
Pollen Not available.
Air Quality Not available.
Flu Activity Not available.
METAR ESUT 281250Z AUTO 16019KT 9000 FEW120/// M01/M06 Q0993

More Conditions Fewer Conditions

10-Day Weather Forecast

Almanac

Astronomy

Feb. 28, 2015 Rise Set
Actual Time
Civil Twilight
Nautical Twilight
Astronomical Twilight
Moon
Length of Visible Light
Length of Day
Tomorrow will be .
, % of the Moon is Illuminated

Today's Extremes

Country Highs Country Lows

Community

WunderPhotos

Upload Photos

1,801,002 photos uploaded!

WunderBlogs® & News

Nearby

Air Quality

  Air Quality AQ Index Pollutant
Not available.

Snow Depth

Station Depth Elevation

Earthquake Activity

City Distance Mag. Time & Date
Minimum magnitude displayed is 2.5.

Coastal Water Temperatures

Place Temperature

Nearby Weather Stations